sensor_id;sensor_type;location;lat;lon;timestamp;P1;durP1;ratioP1;P2;durP2;ratioP2
13349;SDS011;6744;53.190;6.576;2022-11-13T00:00:27;13.00;;;11.80;;
13349;SDS011;6744;53.190;6.576;2022-11-13T00:02:52;12.37;;;11.33;;
13349;SDS011;6744;53.190;6.576;2022-11-13T00:05:17;12.43;;;11.23;;
13349;SDS011;6744;53.190;6.576;2022-11-13T00:07:43;11.87;;;10.77;;
13349;SDS011;6744;53.190;6.576;2022-11-13T00:10:08;12.13;;;11.03;;
13349;SDS011;6744;53.190;6.576;2022-11-13T00:12:34;11.63;;;10.53;;
13349;SDS011;6744;53.190;6.576;2022-11-13T00:14:59;12.13;;;11.03;;
13349;SDS011;6744;53.190;6.576;2022-11-13T00:17:24;11.57;;;10.57;;
13349;SDS011;6744;53.190;6.576;2022-11-13T00:19:50;12.67;;;11.63;;
13349;SDS011;6744;53.190;6.576;2022-11-13T00:22:15;12.10;;;11.10;;
13349;SDS011;6744;53.190;6.576;2022-11-13T00:24:40;12.10;;;11.00;;
13349;SDS011;6744;53.190;6.576;2022-11-13T00:27:06;12.30;;;11.30;;
13349;SDS011;6744;53.190;6.576;2022-11-13T00:29:31;12.40;;;11.30;;
13349;SDS011;6744;53.190;6.576;2022-11-13T00:31:56;12.67;;;11.57;;
13349;SDS011;6744;53.190;6.576;2022-11-13T00:34:22;12.50;;;11.40;;
13349;SDS011;6744;53.190;6.576;2022-11-13T00:36:47;11.90;;;10.90;;
13349;SDS011;6744;53.190;6.576;2022-11-13T00:39:12;12.60;;;11.40;;
13349;SDS011;6744;53.190;6.576;2022-11-13T00:41:38;12.97;;;11.77;;
13349;SDS011;6744;53.190;6.576;2022-11-13T00:44:03;12.37;;;11.37;;
13349;SDS011;6744;53.190;6.576;2022-11-13T00:46:29;13.03;;;11.83;;
13349;SDS011;6744;53.190;6.576;2022-11-13T00:48:54;12.97;;;11.87;;
13349;SDS011;6744;53.190;6.576;2022-11-13T00:51:20;12.47;;;11.43;;
13349;SDS011;6744;53.190;6.576;2022-11-13T00:53:45;12.43;;;11.30;;
13349;SDS011;6744;53.190;6.576;2022-11-13T00:56:11;12.03;;;11.00;;
13349;SDS011;6744;53.190;6.576;2022-11-13T00:58:36;12.70;;;11.60;;
13349;SDS011;6744;53.190;6.576;2022-11-13T01:01:09;12.10;;;11.10;;
13349;SDS011;6744;53.190;6.576;2022-11-13T01:03:36;11.80;;;10.80;;
13349;SDS011;6744;53.190;6.576;2022-11-13T01:06:08;11.93;;;10.90;;
13349;SDS011;6744;53.190;6.576;2022-11-13T01:08:37;12.30;;;11.20;;
13349;SDS011;6744;53.190;6.576;2022-11-13T01:11:10;13.13;;;11.97;;
13349;SDS011;6744;53.190;6.576;2022-11-13T01:13:36;13.30;;;12.13;;
13349;SDS011;6744;53.190;6.576;2022-11-13T01:16:06;11.80;;;10.80;;
13349;SDS011;6744;53.190;6.576;2022-11-13T01:18:33;12.07;;;11.07;;
13349;SDS011;6744;53.190;6.576;2022-11-13T01:21:06;11.63;;;10.63;;
13349;SDS011;6744;53.190;6.576;2022-11-13T01:23:35;12.57;;;11.43;;
13349;SDS011;6744;53.190;6.576;2022-11-13T01:26:20;13.10;;;11.17;;
13349;SDS011;6744;53.190;6.576;2022-11-13T01:28:47;12.43;;;11.27;;
13349;SDS011;6744;53.190;6.576;2022-11-13T01:31:14;12.83;;;11.73;;
13349;SDS011;6744;53.190;6.576;2022-11-13T01:33:41;12.07;;;11.07;;
13349;SDS011;6744;53.190;6.576;2022-11-13T01:36:08;12.23;;;11.13;;
13349;SDS011;6744;53.190;6.576;2022-11-13T01:38:36;12.10;;;11.00;;
13349;SDS011;6744;53.190;6.576;2022-11-13T01:41:02;11.93;;;10.83;;
13349;SDS011;6744;53.190;6.576;2022-11-13T01:43:28;12.30;;;11.20;;
13349;SDS011;6744;53.190;6.576;2022-11-13T01:48:34;14.90;;;13.60;;
13349;SDS011;6744;53.190;6.576;2022-11-13T01:51:02;15.20;;;13.87;;
13349;SDS011;6744;53.190;6.576;2022-11-13T01:53:34;17.03;;;15.43;;
13349;SDS011;6744;53.190;6.576;2022-11-13T01:55:59;16.37;;;14.87;;
13349;SDS011;6744;53.190;6.576;2022-11-13T01:58:25;14.53;;;13.20;;
13349;SDS011;6744;53.190;6.576;2022-11-13T02:00:50;15.20;;;13.80;;
13349;SDS011;6744;53.190;6.576;2022-11-13T02:03:16;16.07;;;14.67;;
13349;SDS011;6744;53.190;6.576;2022-11-13T02:05:41;16.47;;;14.87;;
13349;SDS011;6744;53.190;6.576;2022-11-13T02:08:07;14.70;;;13.17;;
13349;SDS011;6744;53.190;6.576;2022-11-13T02:10:32;15.17;;;13.87;;
13349;SDS011;6744;53.190;6.576;2022-11-13T02:12:57;14.93;;;13.60;;
13349;SDS011;6744;53.190;6.576;2022-11-13T02:15:23;13.73;;;12.63;;
13349;SDS011;6744;53.190;6.576;2022-11-13T02:17:56;14.00;;;12.90;;
13349;SDS011;6744;53.190;6.576;2022-11-13T02:20:29;13.93;;;12.73;;
13349;SDS011;6744;53.190;6.576;2022-11-13T02:25:53;13.70;;;12.50;;
13349;SDS011;6744;53.190;6.576;2022-11-13T02:28:18;14.17;;;12.83;;
13349;SDS011;6744;53.190;6.576;2022-11-13T02:30:44;13.43;;;12.23;;
13349;SDS011;6744;53.190;6.576;2022-11-13T02:35:47;14.20;;;12.90;;
13349;SDS011;6744;53.190;6.576;2022-11-13T02:38:12;13.40;;;12.20;;
13349;SDS011;6744;53.190;6.576;2022-11-13T02:40:38;12.77;;;11.63;;
13349;SDS011;6744;53.190;6.576;2022-11-13T02:43:03;12.83;;;11.83;;
13349;SDS011;6744;53.190;6.576;2022-11-13T02:45:28;12.80;;;11.70;;
13349;SDS011;6744;53.190;6.576;2022-11-13T02:47:54;13.17;;;11.97;;
13349;SDS011;6744;53.190;6.576;2022-11-13T02:50:19;12.90;;;11.80;;
13349;SDS011;6744;53.190;6.576;2022-11-13T02:52:44;12.70;;;11.70;;
13349;SDS011;6744;53.190;6.576;2022-11-13T02:55:10;13.33;;;12.13;;
13349;SDS011;6744;53.190;6.576;2022-11-13T02:57:35;14.07;;;12.70;;
13349;SDS011;6744;53.190;6.576;2022-11-13T03:00:00;13.57;;;12.27;;
13349;SDS011;6744;53.190;6.576;2022-11-13T03:02:26;13.50;;;12.30;;
13349;SDS011;6744;53.190;6.576;2022-11-13T03:04:51;13.67;;;12.37;;
13349;SDS011;6744;53.190;6.576;2022-11-13T03:07:17;14.27;;;12.97;;
13349;SDS011;6744;53.190;6.576;2022-11-13T03:09:42;14.07;;;12.77;;
13349;SDS011;6744;53.190;6.576;2022-11-13T03:12:08;12.93;;;11.83;;
13349;SDS011;6744;53.190;6.576;2022-11-13T03:14:34;13.53;;;12.43;;
13349;SDS011;6744;53.190;6.576;2022-11-13T03:16:59;13.60;;;12.40;;
13349;SDS011;6744;53.190;6.576;2022-11-13T03:19:25;12.77;;;11.57;;
13349;SDS011;6744;53.190;6.576;2022-11-13T03:21:50;13.07;;;11.90;;
13349;SDS011;6744;53.190;6.576;2022-11-13T03:24:15;12.63;;;11.57;;
13349;SDS011;6744;53.190;6.576;2022-11-13T03:26:41;12.53;;;11.43;;
13349;SDS011;6744;53.190;6.576;2022-11-13T03:29:06;12.37;;;11.27;;
13349;SDS011;6744;53.190;6.576;2022-11-13T03:31:32;12.27;;;11.20;;
13349;SDS011;6744;53.190;6.576;2022-11-13T03:33:57;12.50;;;11.40;;
13349;SDS011;6744;53.190;6.576;2022-11-13T03:36:23;13.20;;;11.90;;
13349;SDS011;6744;53.190;6.576;2022-11-13T03:38:48;11.80;;;10.80;;
13349;SDS011;6744;53.190;6.576;2022-11-13T03:41:14;12.90;;;11.80;;
13349;SDS011;6744;53.190;6.576;2022-11-13T03:43:39;12.40;;;11.30;;
13349;SDS011;6744;53.190;6.576;2022-11-13T03:46:05;12.13;;;10.93;;
13349;SDS011;6744;53.190;6.576;2022-11-13T03:48:31;12.63;;;11.53;;
13349;SDS011;6744;53.190;6.576;2022-11-13T03:50:56;12.80;;;11.70;;
13349;SDS011;6744;53.190;6.576;2022-11-13T03:53:22;13.23;;;12.13;;
13349;SDS011;6744;53.190;6.576;2022-11-13T03:55:47;12.13;;;11.03;;
13349;SDS011;6744;53.190;6.576;2022-11-13T03:58:12;12.30;;;11.30;;
13349;SDS011;6744;53.190;6.576;2022-11-13T04:00:38;12.60;;;11.50;;
13349;SDS011;6744;53.190;6.576;2022-11-13T04:03:04;12.43;;;11.17;;
13349;SDS011;6744;53.190;6.576;2022-11-13T04:05:29;11.70;;;10.73;;
13349;SDS011;6744;53.190;6.576;2022-11-13T04:07:55;11.03;;;10.10;;
13349;SDS011;6744;53.190;6.576;2022-11-13T04:10:20;12.17;;;11.20;;
13349;SDS011;6744;53.190;6.576;2022-11-13T04:12:46;12.83;;;11.67;;
13349;SDS011;6744;53.190;6.576;2022-11-13T04:15:11;11.20;;;10.20;;
13349;SDS011;6744;53.190;6.576;2022-11-13T04:17:37;11.57;;;10.47;;
13349;SDS011;6744;53.190;6.576;2022-11-13T04:20:02;11.53;;;10.47;;
13349;SDS011;6744;53.190;6.576;2022-11-13T04:22:28;12.60;;;11.47;;
13349;SDS011;6744;53.190;6.576;2022-11-13T04:24:53;11.50;;;10.57;;
13349;SDS011;6744;53.190;6.576;2022-11-13T04:27:19;10.80;;;9.90;;
13349;SDS011;6744;53.190;6.576;2022-11-13T04:29:44;10.50;;;9.50;;
13349;SDS011;6744;53.190;6.576;2022-11-13T04:32:09;11.57;;;10.53;;
13349;SDS011;6744;53.190;6.576;2022-11-13T04:34:35;11.17;;;10.20;;
13349;SDS011;6744;53.190;6.576;2022-11-13T04:37:00;10.73;;;9.83;;
13349;SDS011;6744;53.190;6.576;2022-11-13T04:39:25;10.80;;;9.80;;
13349;SDS011;6744;53.190;6.576;2022-11-13T04:41:51;10.57;;;9.67;;
13349;SDS011;6744;53.190;6.576;2022-11-13T04:44:34;10.33;;;9.43;;
13349;SDS011;6744;53.190;6.576;2022-11-13T04:47:00;10.70;;;9.80;;
13349;SDS011;6744;53.190;6.576;2022-11-13T04:49:25;10.90;;;9.93;;
13349;SDS011;6744;53.190;6.576;2022-11-13T04:51:50;11.20;;;10.20;;
13349;SDS011;6744;53.190;6.576;2022-11-13T04:54:16;11.67;;;10.67;;
13349;SDS011;6744;53.190;6.576;2022-11-13T04:56:41;12.53;;;11.43;;
13349;SDS011;6744;53.190;6.576;2022-11-13T04:59:06;12.33;;;11.27;;
13349;SDS011;6744;53.190;6.576;2022-11-13T05:01:33;13.70;;;12.50;;
13349;SDS011;6744;53.190;6.576;2022-11-13T05:03:59;13.70;;;12.50;;
13349;SDS011;6744;53.190;6.576;2022-11-13T05:06:24;13.40;;;12.10;;
13349;SDS011;6744;53.190;6.576;2022-11-13T05:08:49;14.00;;;12.70;;
13349;SDS011;6744;53.190;6.576;2022-11-13T05:11:15;12.33;;;11.13;;
13349;SDS011;6744;53.190;6.576;2022-11-13T05:13:40;12.73;;;11.63;;
13349;SDS011;6744;53.190;6.576;2022-11-13T05:16:06;12.77;;;11.57;;
13349;SDS011;6744;53.190;6.576;2022-11-13T05:18:33;12.97;;;11.77;;
13349;SDS011;6744;53.190;6.576;2022-11-13T05:21:00;12.67;;;11.57;;
13349;SDS011;6744;53.190;6.576;2022-11-13T05:23:25;11.97;;;10.87;;
13349;SDS011;6744;53.190;6.576;2022-11-13T05:25:51;12.60;;;11.50;;
13349;SDS011;6744;53.190;6.576;2022-11-13T05:28:16;11.53;;;10.43;;
13349;SDS011;6744;53.190;6.576;2022-11-13T05:30:42;10.83;;;9.93;;
13349;SDS011;6744;53.190;6.576;2022-11-13T05:33:07;10.93;;;9.83;;
13349;SDS011;6744;53.190;6.576;2022-11-13T05:35:32;11.57;;;10.43;;
13349;SDS011;6744;53.190;6.576;2022-11-13T05:38:01;10.97;;;10.00;;
13349;SDS011;6744;53.190;6.576;2022-11-13T05:40:27;10.57;;;9.70;;
13349;SDS011;6744;53.190;6.576;2022-11-13T05:42:53;12.07;;;10.97;;
13349;SDS011;6744;53.190;6.576;2022-11-13T05:45:18;11.27;;;10.27;;
13349;SDS011;6744;53.190;6.576;2022-11-13T05:47:44;11.40;;;10.40;;
13349;SDS011;6744;53.190;6.576;2022-11-13T05:50:09;11.63;;;10.53;;
13349;SDS011;6744;53.190;6.576;2022-11-13T05:52:35;11.50;;;10.50;;
13349;SDS011;6744;53.190;6.576;2022-11-13T05:55:00;11.77;;;10.77;;
13349;SDS011;6744;53.190;6.576;2022-11-13T05:57:25;10.83;;;9.93;;
13349;SDS011;6744;53.190;6.576;2022-11-13T05:59:51;12.87;;;11.67;;
13349;SDS011;6744;53.190;6.576;2022-11-13T06:02:16;11.90;;;10.80;;
13349;SDS011;6744;53.190;6.576;2022-11-13T06:04:41;11.30;;;10.30;;
13349;SDS011;6744;53.190;6.576;2022-11-13T06:07:07;10.63;;;9.63;;
13349;SDS011;6744;53.190;6.576;2022-11-13T06:09:32;10.57;;;9.67;;
13349;SDS011;6744;53.190;6.576;2022-11-13T06:11:57;10.60;;;9.70;;
13349;SDS011;6744;53.190;6.576;2022-11-13T06:14:23;10.43;;;9.47;;
13349;SDS011;6744;53.190;6.576;2022-11-13T06:16:48;10.67;;;9.67;;
13349;SDS011;6744;53.190;6.576;2022-11-13T06:19:14;9.63;;;8.80;;
13349;SDS011;6744;53.190;6.576;2022-11-13T06:21:39;10.20;;;9.30;;
13349;SDS011;6744;53.190;6.576;2022-11-13T06:24:05;9.70;;;8.90;;
13349;SDS011;6744;53.190;6.576;2022-11-13T06:26:32;9.73;;;8.93;;
13349;SDS011;6744;53.190;6.576;2022-11-13T06:28:59;9.90;;;9.03;;
13349;SDS011;6744;53.190;6.576;2022-11-13T06:31:26;9.40;;;8.60;;
13349;SDS011;6744;53.190;6.576;2022-11-13T06:33:52;9.43;;;8.67;;
13349;SDS011;6744;53.190;6.576;2022-11-13T06:36:22;9.00;;;8.27;;
13349;SDS011;6744;53.190;6.576;2022-11-13T06:38:48;9.63;;;8.73;;
13349;SDS011;6744;53.190;6.576;2022-11-13T06:41:14;9.80;;;9.00;;
13349;SDS011;6744;53.190;6.576;2022-11-13T06:43:41;10.43;;;9.53;;
13349;SDS011;6744;53.190;6.576;2022-11-13T06:46:08;10.10;;;9.20;;
13349;SDS011;6744;53.190;6.576;2022-11-13T06:48:36;9.90;;;9.10;;
13349;SDS011;6744;53.190;6.576;2022-11-13T06:51:02;9.33;;;8.53;;
13349;SDS011;6744;53.190;6.576;2022-11-13T06:53:28;10.13;;;9.23;;
13349;SDS011;6744;53.190;6.576;2022-11-13T06:55:54;10.00;;;9.10;;
13349;SDS011;6744;53.190;6.576;2022-11-13T06:58:19;9.03;;;8.33;;
13349;SDS011;6744;53.190;6.576;2022-11-13T07:00:45;9.30;;;8.40;;
13349;SDS011;6744;53.190;6.576;2022-11-13T07:03:17;9.57;;;8.77;;
13349;SDS011;6744;53.190;6.576;2022-11-13T07:05:44;9.17;;;8.33;;
13349;SDS011;6744;53.190;6.576;2022-11-13T07:08:10;10.37;;;9.40;;
13349;SDS011;6744;53.190;6.576;2022-11-13T07:10:36;9.77;;;8.87;;
13349;SDS011;6744;53.190;6.576;2022-11-13T07:13:01;9.33;;;8.53;;
13349;SDS011;6744;53.190;6.576;2022-11-13T07:15:27;8.40;;;7.70;;
13349;SDS011;6744;53.190;6.576;2022-11-13T07:17:52;9.50;;;8.60;;
13349;SDS011;6744;53.190;6.576;2022-11-13T07:20:18;8.63;;;7.93;;
13349;SDS011;6744;53.190;6.576;2022-11-13T07:22:43;9.17;;;8.33;;
13349;SDS011;6744;53.190;6.576;2022-11-13T07:25:08;8.90;;;8.10;;
13349;SDS011;6744;53.190;6.576;2022-11-13T07:27:34;9.60;;;8.70;;
13349;SDS011;6744;53.190;6.576;2022-11-13T07:29:59;10.00;;;9.10;;
13349;SDS011;6744;53.190;6.576;2022-11-13T07:32:24;9.90;;;8.90;;
13349;SDS011;6744;53.190;6.576;2022-11-13T07:34:50;9.63;;;8.73;;
13349;SDS011;6744;53.190;6.576;2022-11-13T07:37:15;9.87;;;8.87;;
13349;SDS011;6744;53.190;6.576;2022-11-13T07:39:40;10.27;;;9.37;;
13349;SDS011;6744;53.190;6.576;2022-11-13T07:42:06;9.33;;;8.53;;
13349;SDS011;6744;53.190;6.576;2022-11-13T07:44:31;10.63;;;9.30;;
13349;SDS011;6744;53.190;6.576;2022-11-13T07:46:56;11.33;;;10.23;;
13349;SDS011;6744;53.190;6.576;2022-11-13T07:49:22;11.03;;;10.03;;
13349;SDS011;6744;53.190;6.576;2022-11-13T07:51:47;10.73;;;9.80;;
13349;SDS011;6744;53.190;6.576;2022-11-13T07:54:12;11.23;;;10.13;;
13349;SDS011;6744;53.190;6.576;2022-11-13T07:56:38;11.40;;;10.40;;
13349;SDS011;6744;53.190;6.576;2022-11-13T07:59:03;10.40;;;9.50;;
13349;SDS011;6744;53.190;6.576;2022-11-13T08:01:29;13.30;;;11.20;;
13349;SDS011;6744;53.190;6.576;2022-11-13T08:03:54;11.20;;;10.10;;
13349;SDS011;6744;53.190;6.576;2022-11-13T08:06:19;10.60;;;9.70;;
13349;SDS011;6744;53.190;6.576;2022-11-13T08:08:46;10.87;;;9.87;;
13349;SDS011;6744;53.190;6.576;2022-11-13T08:11:11;11.87;;;10.30;;
13349;SDS011;6744;53.190;6.576;2022-11-13T08:13:37;11.67;;;10.57;;
13349;SDS011;6744;53.190;6.576;2022-11-13T08:16:02;11.03;;;10.03;;
13349;SDS011;6744;53.190;6.576;2022-11-13T08:18:29;11.13;;;10.13;;
13349;SDS011;6744;53.190;6.576;2022-11-13T08:20:55;11.13;;;10.17;;
13349;SDS011;6744;53.190;6.576;2022-11-13T08:23:20;11.77;;;10.57;;
13349;SDS011;6744;53.190;6.576;2022-11-13T08:25:45;11.57;;;10.40;;
13349;SDS011;6744;53.190;6.576;2022-11-13T08:28:11;11.03;;;10.00;;
13349;SDS011;6744;53.190;6.576;2022-11-13T08:30:36;10.93;;;9.93;;
13349;SDS011;6744;53.190;6.576;2022-11-13T08:33:02;10.83;;;9.93;;
13349;SDS011;6744;53.190;6.576;2022-11-13T08:35:27;10.67;;;9.77;;
13349;SDS011;6744;53.190;6.576;2022-11-13T08:37:53;10.80;;;9.53;;
13349;SDS011;6744;53.190;6.576;2022-11-13T08:40:18;9.77;;;8.77;;
13349;SDS011;6744;53.190;6.576;2022-11-13T08:42:43;9.27;;;8.47;;
13349;SDS011;6744;53.190;6.576;2022-11-13T08:45:09;9.33;;;8.43;;
